PWSweather.com
Personal Weather Stations
Station Observations
PXYWEWX1
West End, Punxsutawney, PA 15767

West EndPunxsutawney, PA 15767

Lat: 40.9447, Lon: -78.9905

Elevation: 1273

Station Type: Davis Vantage Pro 2 24 Hour FARS

http://www.punxsutawneyweather.com

Latest ConditionsUpdated 11:45:00 AM EDT Tuesday, Sep 25, 2018
Currently Today's Max Today's Min Today's Average
Temperature 63.2°F17.3°C 63.2°F17.3°C 57.8°F14.3°C 59.1°F15.1°C
Dew Point 60.8°F16.0°C 60.8°F16.0°C 54.9°F12.7°C 56.3°F13.5°C
Winds Calm Calm 1.4 mph -2.3 kmh - - 0.7 mph 1.1 kmh
Wind Gusts 2.0 mph3.2 kmh 8.0 mph12.9 kmh - -
Humidity 92% 93% 88% 90%
Pressure 30.17 in1021.7 mb 30.29 in1025.7 mb 30.17 in1021.7 mb -
Precipitation - 0.61 in15.5 mm - -
Hour Temp Dew Point Humidity Winds Wind Gusts Pressure Precip Precip Rate Daily Precip Total
11:45 AM 63.2°F17.3°C 60.8°F16.0°C 92% Calm Calm 2.0 mph3.2 kmh 30.17 in1021.7 mb 0.01 in0.3 mm 0.00 in0.0 mm 0.61 in15.5 mm
11:30 AM 62.6°F17.0°C 60.2°F15.7°C 92% Calm Calm 4.0 mph6.4 kmh 30.18 in1022.0 mb 0.03 in0.8 mm 0.00 in0.0 mm 0.61 in15.5 mm
11:15 AM 61.9°F16.6°C 59.9°F15.5°C 93% Calm Calm 4.0 mph6.4 kmh 30.18 in1022.0 mb 0.04 in1.0 mm 0.00 in0.0 mm 0.61 in15.5 mm
11:00 AM 61.4°F16.3°C 59.4°F15.2°C 93% 0.4 mph NE0.6 kmh NE 2.0 mph3.2 kmh 30.19 in1022.4 mb 0.04 in1.0 mm 0.01 in0.3 mm 0.61 in15.5 mm
10:45 AM 61.3°F16.3°C 59.0°F15.0°C 92% 0.7 mph NE1.1 kmh NE 3.0 mph4.8 kmh 30.20 in1022.7 mb 0.03 in0.8 mm 0.08 in2.0 mm 0.60 in15.2 mm
10:30 AM 61.2°F16.2°C 58.9°F14.9°C 92% 1.0 mph NE1.6 kmh NE 2.0 mph3.2 kmh 30.20 in1022.7 mb 0.01 in0.3 mm 0.04 in1.0 mm 0.58 in14.7 mm
10:15 AM 61.0°F16.1°C 58.7°F14.8°C 92% 0.9 mph ENE1.4 kmh ENE 4.0 mph6.4 kmh 30.19 in1022.4 mb 0.00 in0.0 mm 0.00 in0.0 mm 0.57 in14.5 mm
10:00 AM 60.8°F16.0°C 58.5°F14.7°C 92% 0.2 mph NE0.3 kmh NE 2.0 mph3.2 kmh 30.20 in1022.7 mb 0.00 in0.0 mm 0.00 in0.0 mm 0.57 in14.5 mm
09:45 AM 60.6°F15.9°C 58.0°F14.4°C 91% Calm Calm 3.0 mph4.8 kmh 30.20 in1022.7 mb 0.00 in0.0 mm 0.00 in0.0 mm 0.57 in14.5 mm
09:30 AM 60.5°F15.8°C 57.9°F14.4°C 91% 0.8 mph NE1.3 kmh NE 3.0 mph4.8 kmh 30.20 in1022.7 mb 0.01 in0.3 mm 0.00 in0.0 mm 0.57 in14.5 mm
09:15 AM 60.1°F15.6°C 57.5°F14.2°C 91% 1.0 mph ENE1.6 kmh ENE 2.0 mph3.2 kmh 30.19 in1022.4 mb 0.06 in1.5 mm 0.00 in0.0 mm 0.57 in14.5 mm
09:00 AM 59.7°F15.4°C 57.1°F13.9°C 91% 1.0 mph NE1.6 kmh NE 3.0 mph4.8 kmh 30.20 in1022.7 mb 0.08 in2.0 mm 0.00 in0.0 mm 0.57 in14.5 mm
08:45 AM 59.5°F15.3°C 56.9°F13.8°C 91% 1.0 mph ENE1.6 kmh ENE 2.0 mph3.2 kmh 30.20 in1022.7 mb 0.08 in2.0 mm 0.00 in0.0 mm 0.57 in14.5 mm
08:30 AM 59.3°F15.2°C 56.7°F13.7°C 91% 0.4 mph NE0.6 kmh NE 3.0 mph4.8 kmh 30.20 in1022.7 mb 0.08 in2.0 mm 0.20 in5.1 mm 0.56 in14.2 mm
08:15 AM 59.4°F15.2°C 56.8°F13.8°C 91% 1.0 mph NE1.6 kmh NE 4.0 mph6.4 kmh 30.20 in1022.7 mb 0.03 in0.8 mm 0.00 in0.0 mm 0.51 in13.0 mm
08:00 AM 59.0°F15.0°C 56.4°F13.6°C 91% 1.0 mph NNE1.6 kmh NNE 3.0 mph4.8 kmh 30.20 in1022.7 mb 0.03 in0.8 mm 0.00 in0.0 mm 0.49 in12.4 mm
07:45 AM 58.9°F14.9°C 56.3°F13.5°C 91% 0.9 mph NE1.4 kmh NE 4.0 mph6.4 kmh 30.20 in1022.7 mb 0.05 in1.3 mm 0.00 in0.0 mm 0.49 in12.4 mm
07:30 AM 58.8°F14.9°C 56.2°F13.4°C 91% 1.4 mph NE2.3 kmh NE 8.0 mph12.9 kmh 30.20 in1022.7 mb 0.08 in2.0 mm 0.00 in0.0 mm 0.48 in12.2 mm
07:15 AM 58.7°F14.8°C 56.1°F13.4°C 91% 1.0 mph ENE1.6 kmh ENE 4.0 mph6.4 kmh 30.20 in1022.7 mb 0.11 in2.8 mm 0.00 in0.0 mm 0.48 in12.2 mm
07:00 AM 58.5°F14.7°C 55.9°F13.3°C 91% 0.8 mph E1.3 kmh E 3.0 mph4.8 kmh 30.20 in1022.7 mb 0.12 in3.0 mm 0.00 in0.0 mm 0.46 in11.7 mm
06:45 AM 58.3°F14.6°C 55.7°F13.2°C 91% 0.1 mph E0.2 kmh E 4.0 mph6.4 kmh 30.20 in1022.7 mb 0.12 in3.0 mm 0.16 in4.1 mm 0.44 in11.2 mm
06:30 AM 58.2°F14.6°C 55.6°F13.1°C 91% 0.9 mph E1.4 kmh E 3.0 mph4.8 kmh 30.20 in1022.7 mb 0.08 in2.0 mm 0.08 in2.0 mm 0.40 in10.2 mm
06:15 AM 58.2°F14.6°C 55.6°F13.1°C 91% 0.8 mph E1.3 kmh E 2.0 mph3.2 kmh 30.21 in1023.0 mb 0.06 in1.5 mm 0.08 in2.0 mm 0.37 in9.4 mm
06:00 AM 58.2°F14.6°C 55.6°F13.1°C 91% 0.2 mph E0.3 kmh E 3.0 mph4.8 kmh 30.21 in1023.0 mb 0.04 in1.0 mm 0.00 in0.0 mm 0.34 in8.6 mm
05:45 AM 58.3°F14.6°C 55.4°F13.0°C 90% 1.0 mph E1.6 kmh E 5.0 mph8.0 kmh 30.21 in1023.0 mb 0.05 in1.3 mm 0.00 in0.0 mm 0.32 in8.1 mm
05:30 AM 58.2°F14.6°C 55.3°F12.9°C 90% 1.0 mph E1.6 kmh E 3.0 mph4.8 kmh 30.21 in1023.0 mb 0.09 in2.3 mm 0.00 in0.0 mm 0.32 in8.1 mm
05:15 AM 58.2°F14.6°C 55.3°F12.9°C 90% 1.1 mph E1.8 kmh E 7.0 mph11.3 kmh 30.21 in1023.0 mb 0.11 in2.8 mm 0.00 in0.0 mm 0.31 in7.9 mm
05:00 AM 58.0°F14.4°C 55.4°F13.0°C 91% 0.5 mph E0.8 kmh E 4.0 mph6.4 kmh 30.22 in1023.4 mb 0.13 in3.3 mm 0.00 in0.0 mm 0.29 in7.4 mm
04:45 AM 57.9°F14.4°C 55.3°F12.9°C 91% 0.5 mph E0.8 kmh E 4.0 mph6.4 kmh 30.22 in1023.4 mb 0.14 in3.6 mm 0.04 in1.0 mm 0.27 in6.9 mm
04:30 AM 57.8°F14.3°C 55.2°F12.9°C 91% 0.7 mph E1.1 kmh E 2.0 mph3.2 kmh 30.22 in1023.4 mb 0.13 in3.3 mm 0.00 in0.0 mm 0.23 in5.8 mm
04:15 AM 57.8°F14.3°C 55.2°F12.9°C 91% 1.0 mph E1.6 kmh E 4.0 mph6.4 kmh 30.23 in1023.7 mb 0.13 in3.3 mm 0.04 in1.0 mm 0.20 in5.1 mm
04:00 AM 57.8°F14.3°C 55.2°F12.9°C 91% 0.3 mph E0.5 kmh E 3.0 mph4.8 kmh 30.24 in1024.0 mb 0.12 in3.0 mm 0.04 in1.0 mm 0.16 in4.1 mm
03:45 AM 57.8°F14.3°C 55.2°F12.9°C 91% 0.3 mph ESE0.5 kmh ESE 3.0 mph4.8 kmh 30.24 in1024.0 mb 0.09 in2.3 mm 0.04 in1.0 mm 0.12 in3.0 mm
03:30 AM 57.8°F14.3°C 55.2°F12.9°C 91% 0.1 mph E0.2 kmh E 4.0 mph6.4 kmh 30.25 in1024.4 mb 0.08 in2.0 mm 0.08 in2.0 mm 0.10 in2.5 mm
03:15 AM 57.9°F14.4°C 55.0°F12.8°C 90% 1.0 mph E1.6 kmh E 4.0 mph6.4 kmh 30.24 in1024.0 mb 0.06 in1.5 mm 0.08 in2.0 mm 0.07 in1.8 mm
03:00 AM 58.0°F14.4°C 55.1°F12.8°C 90% 0.8 mph E1.3 kmh E 5.0 mph8.0 kmh 30.25 in1024.4 mb 0.04 in1.0 mm 0.01 in0.3 mm 0.04 in1.0 mm
02:45 AM 58.1°F14.5°C 54.9°F12.7°C 89% 0.5 mph E0.8 kmh E 5.0 mph8.0 kmh 30.25 in1024.4 mb 0.03 in0.8 mm 0.04 in1.0 mm 0.03 in0.8 mm
02:30 AM 58.1°F14.5°C 54.9°F12.7°C 89% 1.0 mph E1.6 kmh E 3.0 mph4.8 kmh 30.26 in1024.7 mb 0.02 in0.5 mm 0.04 in1.0 mm 0.02 in0.5 mm
02:15 AM 58.3°F14.6°C 55.1°F12.8°C 89% 0.9 mph E1.4 kmh E 2.0 mph3.2 kmh 30.26 in1024.7 mb 0.01 in0.3 mm 0.04 in1.0 mm 0.01 in0.3 mm
02:00 AM 58.4°F14.7°C 54.9°F12.7°C 88% 1.0 mph ESE1.6 kmh ESE 4.0 mph6.4 kmh 30.27 in1025.1 mb 0.00 in0.0 mm 0.00 in0.0 mm 0.01 in0.3 mm
01:45 AM 58.4°F14.7°C 54.9°F12.7°C 88% 0.3 mph E0.5 kmh E 3.0 mph4.8 kmh 30.27 in1025.1 mb 0.00 in0.0 mm 0.00 in0.0 mm 0.01 in0.3 mm
01:30 AM 58.4°F14.7°C 54.9°F12.7°C 88% 1.2 mph ESE1.9 kmh ESE 4.0 mph6.4 kmh 30.27 in1025.1 mb 0.00 in0.0 mm 0.00 in0.0 mm 0.01 in0.3 mm
01:15 AM 58.6°F14.8°C 55.1°F12.8°C 88% 1.0 mph ESE1.6 kmh ESE 5.0 mph8.0 kmh 30.27 in1025.1 mb 0.00 in0.0 mm 0.00 in0.0 mm 0.01 in0.3 mm
01:00 AM 58.4°F14.7°C 54.9°F12.7°C 88% 1.0 mph ESE1.6 kmh ESE 3.0 mph4.8 kmh 30.28 in1025.4 mb 0.00 in0.0 mm 0.00 in0.0 mm 0.01 in0.3 mm
12:45 AM 58.5°F14.7°C 55.0°F12.8°C 88% 1.0 mph E1.6 kmh E 3.0 mph4.8 kmh 30.28 in1025.4 mb 0.00 in0.0 mm 0.00 in0.0 mm 0.01 in0.3 mm
12:30 AM 58.7°F14.8°C 55.2°F12.9°C 88% 1.4 mph E2.3 kmh E 5.0 mph8.0 kmh 30.28 in1025.4 mb 0.00 in0.0 mm 0.00 in0.0 mm 0.01 in0.3 mm
12:15 AM 58.7°F14.8°C 55.2°F12.9°C 88% 1.0 mph ESE1.6 kmh ESE 3.0 mph4.8 kmh 30.29 in1025.7 mb 0.01 in0.3 mm 0.00 in0.0 mm 0.01 in0.3 mm
12:00 AM 58.7°F14.8°C 55.2°F12.9°C 88% 1.0 mph ESE1.6 kmh ESE 6.0 mph9.7 kmh 30.29 in1025.7 mb 0.01 in0.3 mm 0.00 in0.0 mm 0.01 in0.3 mm